createdAt,value
2023-11-04T00:00:14.650Z,97671.19
2023-11-04T00:02:43.742Z,97666.78
2023-11-04T00:05:11.899Z,97669.03
2023-11-04T00:07:39.935Z,97671.41
2023-11-04T00:10:09.287Z,97670.34
2023-11-04T00:12:37.092Z,97661.22
2023-11-04T00:15:05.198Z,97661.53
2023-11-04T00:17:32.912Z,97656.91
2023-11-04T00:20:03.974Z,97667.03
2023-11-04T00:22:31.904Z,97663.41
2023-11-04T00:24:59.561Z,97660.94
2023-11-04T00:27:27.485Z,97667.34
2023-11-04T00:29:55.945Z,97665.19
2023-11-04T00:32:24.723Z,97662.63
2023-11-04T00:34:52.621Z,97666.56
2023-11-04T00:37:23.094Z,97655.38
2023-11-04T00:39:51.347Z,97664.72
2023-11-04T00:42:19.442Z,97657.09
2023-11-04T00:44:47.149Z,97660.28
2023-11-04T00:47:14.917Z,97662.00
2023-11-04T00:49:43.256Z,97648.09
2023-11-04T00:52:11.416Z,97641.06
2023-11-04T00:54:40.771Z,97654.59
2023-11-04T00:57:08.742Z,97646.66
2023-11-04T00:59:36.476Z,97646.66
2023-11-04T01:02:04.588Z,97650.66
2023-11-04T01:04:32.491Z,97649.31
2023-11-04T01:07:01.077Z,97642.72
2023-11-04T01:09:29.289Z,97646.75
2023-11-04T01:11:58.293Z,97640.56
2023-11-04T01:14:26.308Z,97640.16
2023-11-04T01:16:54.821Z,97635.50
2023-11-04T01:19:22.700Z,97631.75
2023-11-04T01:21:50.829Z,97624.06
2023-11-04T01:24:19.231Z,97629.34
2023-11-04T01:26:47.028Z,97638.00
2023-11-04T01:29:16.987Z,97632.47
2023-11-04T01:31:45.882Z,97631.28
2023-11-04T01:34:13.779Z,97626.84
2023-11-04T01:36:41.657Z,97629.34
2023-11-04T01:39:09.610Z,97626.75
2023-11-04T01:41:37.328Z,97618.00
2023-11-04T01:44:05.525Z,97620.03
2023-11-04T01:46:34.999Z,97620.41
2023-11-04T01:49:02.943Z,97622.69
2023-11-04T01:51:31.740Z,97620.16
2023-11-04T01:53:59.691Z,97628.91
2023-11-04T01:56:31.312Z,97618.72
2023-11-04T01:59:00.413Z,97605.84
2023-11-04T02:01:28.331Z,97602.47
2023-11-04T02:03:58.222Z,97609.69
2023-11-04T02:06:26.323Z,97610.97
2023-11-04T02:08:55.905Z,97605.03
2023-11-04T02:11:24.273Z,97615.41
2023-11-04T02:13:52.557Z,97605.13
2023-11-04T02:16:20.239Z,97609.88
2023-11-04T02:18:47.992Z,97596.34
2023-11-04T02:21:17.842Z,97611.72
2023-11-04T02:23:45.667Z,97603.75
2023-11-04T02:26:13.661Z,97601.66
2023-11-04T02:28:41.517Z,97600.94
2023-11-04T02:31:09.563Z,97599.28
2023-11-04T02:33:37.390Z,97599.00
2023-11-04T02:36:05.785Z,97592.19
2023-11-04T02:38:34.925Z,97587.88
2023-11-04T02:41:02.658Z,97589.63
2023-11-04T02:43:30.686Z,97605.41
2023-11-04T02:45:58.379Z,97604.13
2023-11-04T02:48:26.440Z,97604.63
2023-11-04T02:50:54.526Z,97594.78
2023-11-04T02:53:22.214Z,97584.59
2023-11-04T02:55:51.394Z,97591.25
2023-11-04T02:58:19.466Z,97584.97
2023-11-04T03:00:47.183Z,97580.09
2023-11-04T03:03:15.944Z,97580.88
2023-11-04T03:05:43.940Z,97585.41
2023-11-04T03:08:11.659Z,97578.50
2023-11-04T03:10:40.082Z,97572.47
2023-11-04T03:13:09.116Z,97581.06
2023-11-04T03:15:37.272Z,97572.09
2023-11-04T03:18:05.158Z,97569.44
2023-11-04T03:20:32.880Z,97574.81
2023-11-04T03:23:00.953Z,97574.97
2023-11-04T03:25:28.626Z,97568.94
2023-11-04T03:27:56.620Z,97566.09
2023-11-04T03:30:26.127Z,97565.63
2023-11-04T03:32:53.820Z,97568.75
2023-11-04T03:35:21.928Z,97568.75
2023-11-04T03:37:49.554Z,97555.28
2023-11-04T03:40:18.132Z,97562.09
2023-11-04T03:42:46.202Z,97563.16
2023-11-04T03:45:13.879Z,97563.47
2023-11-04T03:47:43.225Z,97562.81
2023-11-04T03:50:11.193Z,97560.00
2023-11-04T03:52:39.110Z,97556.09
2023-11-04T03:55:07.209Z,97553.25
2023-11-04T03:57:34.963Z,97564.34
2023-11-04T04:00:03.971Z,97559.09
2023-11-04T04:02:39.562Z,97553.66
2023-11-04T04:05:09.663Z,97557.72
2023-11-04T04:07:37.396Z,97545.22
2023-11-04T04:10:06.158Z,97543.50
2023-11-04T04:12:34.020Z,97543.06
2023-11-04T04:15:02.821Z,97535.06
2023-11-04T04:17:30.846Z,97528.16
2023-11-04T04:19:58.989Z,97529.28
2023-11-04T04:22:28.129Z,97527.56
2023-11-04T04:24:55.957Z,97512.16
2023-11-04T04:27:24.123Z,97513.13
2023-11-04T04:29:51.806Z,97508.94
2023-11-04T04:32:20.205Z,97515.28
2023-11-04T04:34:48.117Z,97508.88
2023-11-04T04:37:15.967Z,97500.56
2023-11-04T04:39:46.228Z,97502.84
2023-11-04T04:42:13.986Z,97492.31
2023-11-04T04:44:41.649Z,97498.97
2023-11-04T04:47:09.709Z,97393.19
2023-11-04T04:49:37.476Z,97497.84
2023-11-04T04:52:05.861Z,97486.84
2023-11-04T04:54:33.684Z,97485.50
2023-11-04T04:57:02.700Z,97479.81
2023-11-04T04:59:30.429Z,97478.91
2023-11-04T05:01:58.932Z,97477.59
2023-11-04T05:04:26.641Z,97480.75
2023-11-04T05:06:54.771Z,97476.00
2023-11-04T05:09:22.982Z,97472.38
2023-11-04T05:11:50.943Z,97466.38
2023-11-04T05:14:20.401Z,97454.22
2023-11-04T05:16:48.392Z,97444.16
2023-11-04T05:19:17.136Z,97449.16
2023-11-04T05:21:45.686Z,97452.03
2023-11-04T05:24:13.413Z,97447.81
2023-11-04T05:26:42.180Z,97449.41
2023-11-04T05:29:10.633Z,97451.84
2023-11-04T05:31:39.973Z,97433.59
2023-11-04T05:34:08.834Z,97440.50
2023-11-04T05:36:36.928Z,97434.19
2023-11-04T05:39:06.046Z,97423.06
2023-11-04T05:41:34.020Z,97418.50
2023-11-04T05:44:01.693Z,97418.34
2023-11-04T05:46:29.581Z,97416.47
2023-11-04T05:48:58.750Z,97418.13
2023-11-04T05:51:27.479Z,97419.47
2023-11-04T05:53:55.186Z,97421.06
2023-11-04T05:56:23.262Z,97421.06
2023-11-04T05:58:50.927Z,97406.72
2023-11-04T06:01:24.664Z,97417.84
2023-11-04T06:03:52.892Z,97411.72
2023-11-04T06:06:23.378Z,97419.69
2023-11-04T06:08:51.171Z,97414.31
2023-11-04T06:11:22.540Z,97405.13
2023-11-04T06:13:51.536Z,97399.53
2023-11-04T06:16:19.465Z,97400.31
2023-11-04T06:18:47.929Z,97387.03
2023-11-04T06:21:17.413Z,97384.03
2023-11-04T06:23:46.565Z,97387.19
2023-11-04T06:26:23.109Z,97383.47
2023-11-04T06:28:50.948Z,97382.78
2023-11-04T06:31:22.560Z,97367.88
2023-11-04T06:33:50.737Z,97371.69
2023-11-04T06:36:19.627Z,97366.84
2023-11-04T06:38:48.650Z,97364.47
2023-11-04T06:41:18.269Z,97365.72
2023-11-04T06:43:47.185Z,97371.59
2023-11-04T06:46:14.970Z,97354.88
2023-11-04T06:48:43.753Z,97371.72
2023-11-04T06:51:11.808Z,97362.94
2023-11-04T06:53:39.822Z,97368.00
2023-11-04T06:56:10.431Z,97362.16
2023-11-04T06:58:38.164Z,97363.50
2023-11-04T07:01:06.150Z,97371.53
2023-11-04T07:03:36.414Z,97363.81
2023-11-04T07:06:04.667Z,97359.38
2023-11-04T07:08:32.954Z,97282.50
2023-11-04T07:11:00.614Z,97357.59
2023-11-04T07:13:30.134Z,97348.59
2023-11-04T07:15:58.769Z,97350.41
2023-11-04T07:21:17.919Z,97333.50
2023-11-04T07:23:45.597Z,97343.56
2023-11-04T07:26:13.247Z,97344.44
2023-11-04T07:28:44.970Z,97343.66
2023-11-04T07:31:17.315Z,97333.31
2023-11-04T07:33:45.443Z,97331.75
2023-11-04T07:36:13.591Z,97320.88
2023-11-04T07:38:41.433Z,97321.69
2023-11-04T07:41:09.615Z,97317.19
2023-11-04T07:43:37.629Z,97316.66
2023-11-04T07:46:07.324Z,97320.03
2023-11-04T07:48:35.601Z,97314.66
2023-11-04T07:51:03.370Z,97312.28
2023-11-04T07:53:31.032Z,97305.47
2023-11-04T07:55:59.004Z,97287.13
2023-11-04T07:58:26.866Z,97288.47
2023-11-04T08:00:55.628Z,97300.44
2023-11-04T08:03:25.171Z,97292.00
2023-11-04T08:05:53.218Z,97280.34
2023-11-04T08:08:21.550Z,97297.63
2023-11-04T08:10:49.577Z,97293.41
2023-11-04T08:13:17.241Z,97285.44
2023-11-04T08:15:44.915Z,97278.28
2023-11-04T08:18:12.869Z,97275.88
2023-11-04T08:20:41.900Z,97267.38
2023-11-04T08:23:09.609Z,97268.44
2023-11-04T08:25:37.626Z,97272.44
2023-11-04T08:28:05.662Z,97263.41
2023-11-04T08:30:34.037Z,97255.69
2023-11-04T08:33:02.043Z,97244.22
2023-11-04T08:35:30.701Z,97249.03
2023-11-04T08:37:59.719Z,97241.31
2023-11-04T08:40:28.100Z,97237.88
2023-11-04T08:42:55.927Z,97241.31
2023-11-04T08:45:25.239Z,97240.25
2023-11-04T08:47:54.051Z,97237.31
2023-11-04T08:50:21.977Z,97235.16
2023-11-04T08:52:49.770Z,97238.13
2023-11-04T08:55:19.595Z,97235.47
2023-11-04T08:57:47.896Z,97241.56
2023-11-04T09:00:16.722Z,97249.03
2023-11-04T09:02:44.937Z,97233.59
2023-11-04T09:05:17.204Z,97242.13
2023-11-04T09:07:47.916Z,97227.78
2023-11-04T09:10:16.112Z,97230.94
2023-11-04T09:12:45.258Z,97213.09
2023-11-04T09:15:13.816Z,97202.19
2023-11-04T09:17:42.768Z,97203.50
2023-11-04T09:20:11.859Z,97192.59
2023-11-04T09:22:40.577Z,97187.78
2023-11-04T09:25:10.678Z,97106.28
2023-11-04T09:27:39.035Z,97181.59
2023-11-04T09:30:10.035Z,97169.31
2023-11-04T09:32:37.885Z,97166.84
2023-11-04T09:35:06.383Z,97152.25
2023-11-04T09:37:34.843Z,97137.78
2023-11-04T09:40:02.708Z,97142.41
2023-11-04T09:42:32.467Z,97138.56
2023-11-04T09:45:01.085Z,97130.94
2023-11-04T09:47:30.866Z,97115.34
2023-11-04T09:49:58.675Z,97116.91
2023-11-04T09:52:29.094Z,97109.53
2023-11-04T09:54:58.858Z,97100.03
2023-11-04T09:57:27.297Z,97095.47
2023-11-04T09:59:55.106Z,97107.06
2023-11-04T10:02:24.088Z,97071.75
2023-11-04T10:04:54.151Z,97068.16
2023-11-04T10:07:23.995Z,97060.97
2023-11-04T10:09:52.092Z,97053.06
2023-11-04T10:12:20.090Z,97053.25
2023-11-04T10:14:48.385Z,97034.22
2023-11-04T10:17:16.166Z,97037.13
2023-11-04T10:19:44.546Z,97026.94
2023-11-04T10:22:15.571Z,97013.69
2023-11-04T10:24:43.678Z,97010.19
2023-11-04T10:27:11.430Z,97002.34
2023-11-04T10:29:39.660Z,97008.88
2023-11-04T10:32:13.371Z,97000.09
2023-11-04T10:34:45.912Z,96984.50
2023-11-04T10:37:20.215Z,96982.69
2023-11-04T10:39:51.156Z,96978.75
2023-11-04T10:42:22.950Z,96971.47
2023-11-04T10:44:58.863Z,96958.88
2023-11-04T10:47:36.388Z,96964.38
2023-11-04T10:50:10.910Z,96950.03
2023-11-04T10:52:51.309Z,96944.66
2023-11-04T10:55:23.720Z,96941.38
2023-11-04T10:58:04.699Z,96917.63
2023-11-04T11:00:36.104Z,96918.88
2023-11-04T11:03:05.168Z,96922.59
2023-11-04T11:05:35.234Z,96901.91
2023-11-04T11:08:06.030Z,96908.69
2023-11-04T11:10:40.158Z,96919.63
2023-11-04T11:13:13.197Z,96913.88
2023-11-04T11:15:42.230Z,96906.41
2023-11-04T11:18:12.577Z,96903.00
2023-11-04T11:20:40.948Z,96889.97
2023-11-04T11:23:12.154Z,96895.84
2023-11-04T11:25:41.960Z,96883.88
2023-11-04T11:28:21.878Z,96881.47
2023-11-04T11:30:54.757Z,96878.22
2023-11-04T11:33:29.131Z,96872.91
2023-11-04T11:36:01.250Z,96880.81
2023-11-04T11:38:31.839Z,96888.75
2023-11-04T11:41:05.573Z,96881.22
2023-11-04T11:43:33.735Z,96869.53
2023-11-04T11:46:07.061Z,96858.91
2023-11-04T11:48:39.601Z,96851.84
2023-11-04T11:51:08.683Z,96854.53
2023-11-04T11:53:39.189Z,96841.53
2023-11-04T11:56:07.323Z,96837.13
2023-11-04T11:58:36.264Z,96812.78
2023-11-04T12:01:05.320Z,96799.44
2023-11-04T12:03:33.572Z,96780.22
2023-11-04T12:06:01.698Z,96767.78
2023-11-04T12:08:29.550Z,96767.78
2023-11-04T12:10:58.736Z,96757.03
2023-11-04T12:13:26.814Z,96752.13
2023-11-04T12:15:54.789Z,96767.56
2023-11-04T12:18:22.692Z,96771.31
2023-11-04T12:20:51.202Z,96759.28
2023-11-04T12:23:18.893Z,96745.47
2023-11-04T12:25:47.422Z,96742.00
2023-11-04T12:28:16.777Z,96735.25
2023-11-04T12:30:44.478Z,96718.91
2023-11-04T12:33:12.215Z,96716.88
2023-11-04T12:35:42.288Z,96696.16
2023-11-04T12:38:11.219Z,96704.50
2023-11-04T12:40:39.444Z,96700.47
2023-11-04T12:43:07.846Z,96701.91
2023-11-04T12:45:37.236Z,96706.44
2023-11-04T12:48:05.365Z,96697.81
2023-11-04T12:50:33.042Z,96697.09
2023-11-04T12:53:03.079Z,96686.44
2023-11-04T12:55:31.371Z,96696.06
2023-11-04T12:57:59.084Z,96686.28
2023-11-04T13:00:27.189Z,96683.41
2023-11-04T13:02:56.572Z,96664.06
2023-11-04T13:05:25.080Z,96667.13
2023-11-04T13:07:53.263Z,96668.03
2023-11-04T13:10:22.735Z,96663.00
2023-11-04T13:12:51.881Z,96649.59
2023-11-04T13:15:20.370Z,96626.53
2023-11-04T13:17:48.450Z,96621.09
2023-11-04T13:20:18.947Z,96623.66
2023-11-04T13:22:46.903Z,96618.19
2023-11-04T13:25:14.820Z,96631.53
2023-11-04T13:27:42.918Z,96619.09
2023-11-04T13:30:14.679Z,96600.50
2023-11-04T13:32:43.053Z,96583.28
2023-11-04T13:35:12.178Z,96587.50
2023-11-04T13:37:41.479Z,96584.91
2023-11-04T13:40:10.498Z,96580.41
2023-11-04T13:42:38.402Z,96579.28
2023-11-04T13:45:07.949Z,96603.72
2023-11-04T13:47:38.105Z,96578.72
2023-11-04T13:50:07.848Z,96584.06
2023-11-04T13:52:35.886Z,96570.28
2023-11-04T13:55:07.713Z,96558.84
2023-11-04T13:57:35.657Z,96576.88
2023-11-04T14:00:03.487Z,96567.25
2023-11-04T14:02:32.915Z,96557.75
2023-11-04T14:05:01.677Z,96567.78
2023-11-04T14:07:29.583Z,96554.50
2023-11-04T14:09:57.810Z,96564.56
2023-11-04T14:12:26.820Z,96591.06
2023-11-04T14:14:55.131Z,96590.75
2023-11-04T14:17:23.212Z,96575.97
2023-11-04T14:19:50.874Z,96561.53
2023-11-04T14:22:19.421Z,96555.84
2023-11-04T14:24:47.869Z,96524.03
2023-11-04T14:27:16.188Z,96520.38
2023-11-04T14:29:45.288Z,96473.72
2023-11-04T14:32:13.572Z,96480.41
2023-11-04T14:34:41.280Z,96498.72
2023-11-04T14:37:10.293Z,96514.06
2023-11-04T14:39:38.642Z,96503.53
2023-11-04T14:42:06.825Z,96532.38
2023-11-04T14:44:34.538Z,96525.78
2023-11-04T14:47:03.707Z,96527.88
2023-11-04T14:49:31.557Z,96473.56
2023-11-04T14:51:59.381Z,96494.44
2023-11-04T14:54:27.566Z,96483.31
2023-11-04T14:56:55.491Z,96471.41
2023-11-04T14:59:23.215Z,96479.03
2023-11-04T15:01:53.318Z,96482.41
2023-11-04T15:04:22.875Z,96470.25
2023-11-04T15:06:50.922Z,96462.22
2023-11-04T15:09:19.487Z,96466.72
2023-11-04T15:11:47.335Z,96456.94
2023-11-04T15:14:15.130Z,96432.22
2023-11-04T15:16:43.088Z,96446.38
2023-11-04T15:19:10.924Z,96437.16
2023-11-04T15:21:40.183Z,96408.84
2023-11-04T15:24:09.240Z,96423.38
2023-11-04T15:26:36.982Z,96442.97
2023-11-04T15:29:04.706Z,96428.72
2023-11-04T15:31:32.662Z,96429.00
2023-11-04T15:34:00.578Z,96421.88
2023-11-04T15:36:28.624Z,96445.47
2023-11-04T15:38:58.379Z,96435.19
2023-11-04T15:41:26.256Z,96445.25
2023-11-04T15:43:54.273Z,96449.81
2023-11-04T15:46:22.659Z,96441.56
2023-11-04T15:48:50.897Z,96429.44
2023-11-04T15:51:19.017Z,96435.63
2023-11-04T15:53:46.770Z,96434.34
2023-11-04T15:56:15.957Z,96416.28
2023-11-04T15:58:44.113Z,96422.63
2023-11-04T16:01:11.987Z,96414.31
2023-11-04T16:03:42.217Z,96424.81
2023-11-04T16:06:10.883Z,96408.22
2023-11-04T16:08:38.692Z,96407.13
2023-11-04T16:11:07.106Z,96398.09
2023-11-04T16:13:36.818Z,96401.81
2023-11-04T16:16:06.846Z,96390.75
2023-11-04T16:18:34.935Z,96397.63
2023-11-04T16:21:03.572Z,96390.16
2023-11-04T16:23:31.710Z,96391.53
2023-11-04T16:25:59.533Z,96391.75
2023-11-04T16:28:27.733Z,96402.03
2023-11-04T16:30:56.841Z,96394.78
2023-11-04T16:33:24.674Z,96384.63
2023-11-04T16:35:52.679Z,96412.03
2023-11-04T16:38:20.428Z,96382.34
2023-11-04T16:40:48.050Z,96386.28
2023-11-04T16:43:16.187Z,96376.72
2023-11-04T16:45:44.102Z,96373.81
2023-11-04T16:48:14.450Z,96378.56
2023-11-04T16:50:42.229Z,96370.06
2023-11-04T16:53:10.574Z,96375.84
2023-11-04T16:55:38.257Z,96385.88
2023-11-04T16:58:05.942Z,96385.25
2023-11-04T17:00:34.672Z,96388.38
2023-11-04T17:03:02.424Z,96384.19
2023-11-04T17:05:31.698Z,96376.16
2023-11-04T17:08:00.140Z,96373.97
2023-11-04T17:10:27.966Z,96376.00
2023-11-04T17:12:56.444Z,96371.97
2023-11-04T17:15:24.418Z,96374.41
2023-11-04T17:17:52.358Z,96393.72
2023-11-04T17:20:20.183Z,96391.97
2023-11-04T17:22:49.427Z,96383.56
2023-11-04T17:25:17.205Z,96381.41
2023-11-04T17:27:45.822Z,96392.72
2023-11-04T17:30:14.881Z,96395.38
2023-11-04T17:32:42.571Z,96383.81
2023-11-04T17:35:10.278Z,96384.84
2023-11-04T17:37:41.123Z,96399.34
2023-11-04T17:40:11.860Z,96410.97
2023-11-04T17:42:43.209Z,96429.00
2023-11-04T17:45:13.078Z,96402.66
2023-11-04T17:47:41.423Z,96403.00
2023-11-04T17:50:10.386Z,96402.50
2023-11-04T17:52:39.578Z,96403.00
2023-11-04T17:55:09.886Z,96400.56
2023-11-04T17:57:39.058Z,96375.88
2023-11-04T18:00:10.395Z,96413.28
2023-11-04T18:02:41.614Z,96400.94
2023-11-04T18:05:09.716Z,96421.31
2023-11-04T18:07:37.532Z,96381.47
2023-11-04T18:10:06.567Z,96390.38
2023-11-04T18:12:34.411Z,96385.91
2023-11-04T18:15:03.472Z,96385.91
2023-11-04T18:17:31.731Z,96382.84
2023-11-04T18:19:59.813Z,96389.81
2023-11-04T18:22:27.702Z,96382.19
2023-11-04T18:24:56.919Z,96379.00
2023-11-04T18:27:35.498Z,96348.25
2023-11-04T18:30:15.400Z,96376.50
2023-11-04T18:32:43.259Z,96382.56
2023-11-04T18:35:14.144Z,96373.16
2023-11-04T18:37:42.280Z,96370.34
2023-11-04T18:40:11.324Z,96358.72
2023-11-04T18:42:39.077Z,96338.25
2023-11-04T18:45:07.778Z,96347.44
2023-11-04T18:47:37.077Z,96357.00
2023-11-04T18:50:05.278Z,96353.22
2023-11-04T18:52:34.946Z,96364.13
2023-11-04T18:55:03.750Z,96353.53
2023-11-04T18:57:32.163Z,96359.81
2023-11-04T19:00:00.269Z,96356.03
2023-11-04T19:02:28.003Z,96347.03
2023-11-04T19:05:00.083Z,96365.03
2023-11-04T19:07:28.246Z,96360.50
2023-11-04T19:09:56.052Z,96357.09
2023-11-04T19:12:23.888Z,96368.91
2023-11-04T19:14:52.743Z,96365.28
2023-11-04T19:17:20.399Z,96369.63
2023-11-04T19:19:48.169Z,96370.69
2023-11-04T19:22:17.395Z,96360.56
2023-11-04T19:24:45.097Z,96360.91
2023-11-04T19:27:12.714Z,96370.28
2023-11-04T19:29:40.453Z,96368.06
2023-11-04T19:32:08.659Z,96377.59
2023-11-04T19:34:36.290Z,96362.63
2023-11-04T19:37:04.489Z,96366.88
2023-11-04T19:39:33.518Z,96352.56
2023-11-04T19:42:01.274Z,96356.31
2023-11-04T19:44:29.547Z,96355.50
2023-11-04T19:46:57.191Z,96360.94
2023-11-04T19:49:24.894Z,96372.09
2023-11-04T19:51:53.231Z,96367.16
2023-11-04T19:54:20.896Z,96374.06
2023-11-04T19:56:51.326Z,96378.59
2023-11-04T19:59:19.358Z,96384.31
2023-11-04T20:01:47.008Z,96383.34
2023-11-04T20:04:14.991Z,96382.84
2023-11-04T20:06:43.440Z,96377.84
2023-11-04T20:09:11.555Z,96379.59
2023-11-04T20:11:39.278Z,96384.13
2023-11-04T20:14:08.604Z,96393.50
2023-11-04T20:16:36.233Z,96391.78
2023-11-04T20:19:04.816Z,96391.03
2023-11-04T20:21:32.799Z,96381.19
2023-11-04T20:24:00.425Z,96392.41
2023-11-04T20:26:29.135Z,96380.84
2023-11-04T20:28:56.950Z,96386.91
2023-11-04T20:31:25.967Z,96395.06
2023-11-04T20:33:56.062Z,96373.16
2023-11-04T20:36:24.407Z,96386.72
2023-11-04T20:38:53.065Z,96385.91
2023-11-04T20:41:20.992Z,96368.84
2023-11-04T20:43:48.929Z,96364.44
2023-11-04T20:46:16.661Z,96365.47
2023-11-04T20:48:45.715Z,96374.28
2023-11-04T20:51:14.250Z,96377.31
2023-11-04T20:53:42.177Z,96373.59
2023-11-04T20:56:10.318Z,96383.13
2023-11-04T20:58:39.271Z,96388.50
2023-11-04T21:01:07.370Z,96372.00
2023-11-04T21:03:35.012Z,96379.16
2023-11-04T21:06:06.876Z,96390.81
2023-11-04T21:08:35.744Z,96383.13
2023-11-04T21:11:04.600Z,96406.81
2023-11-04T21:13:37.164Z,96389.59
2023-11-04T21:16:09.649Z,96379.09
2023-11-04T21:18:37.647Z,96387.28
2023-11-04T21:21:08.233Z,96378.69
2023-11-04T21:23:36.525Z,96377.88
2023-11-04T21:26:05.120Z,96378.31
2023-11-04T21:28:33.043Z,96360.16
2023-11-04T21:31:01.174Z,96368.13
2023-11-04T21:33:31.842Z,96376.16
2023-11-04T21:36:00.274Z,96371.41
2023-11-04T21:38:29.504Z,96373.59
2023-11-04T21:40:58.284Z,96362.38
2023-11-04T21:43:26.152Z,96367.38
2023-11-04T21:45:54.117Z,96378.31
2023-11-04T21:48:23.162Z,96370.34
2023-11-04T21:50:51.065Z,96368.97
2023-11-04T21:53:18.735Z,96374.94
2023-11-04T21:55:48.092Z,96359.56
2023-11-04T21:58:15.762Z,96370.13
2023-11-04T22:00:43.511Z,96367.47
2023-11-04T22:03:11.425Z,96372.28
2023-11-04T22:05:39.205Z,96369.91
2023-11-04T22:08:07.785Z,96352.81
2023-11-04T22:10:38.987Z,96378.47
2023-11-04T22:13:08.473Z,96395.97
2023-11-04T22:15:37.107Z,96388.00
2023-11-04T22:18:05.217Z,96386.06
2023-11-04T22:20:34.996Z,96380.19
2023-11-04T22:23:03.420Z,96382.84
2023-11-04T22:25:31.411Z,96382.84
2023-11-04T22:27:59.225Z,96380.25
2023-11-04T22:30:29.332Z,96377.78
2023-11-04T22:32:57.140Z,96385.44
2023-11-04T22:35:25.357Z,96395.84
2023-11-04T22:37:53.270Z,96393.41
2023-11-04T22:40:21.140Z,96385.91
2023-11-04T22:42:49.179Z,96380.66
2023-11-04T22:45:17.048Z,96391.66
2023-11-04T22:47:46.445Z,96392.16
2023-11-04T22:50:14.144Z,96394.91
2023-11-04T22:52:41.834Z,96394.84
2023-11-04T22:55:10.326Z,96387.34
2023-11-04T22:57:37.994Z,96374.88
2023-11-04T23:00:18.738Z,96380.75
2023-11-04T23:02:48.201Z,96391.03
2023-11-04T23:05:16.258Z,96374.84
2023-11-04T23:07:43.958Z,96369.69
2023-11-04T23:10:11.832Z,96371.13
2023-11-04T23:12:39.832Z,96365.72
2023-11-04T23:15:08.819Z,96366.16
2023-11-04T23:17:36.903Z,96370.09
2023-11-04T23:20:08.371Z,96367.09
2023-11-04T23:22:36.246Z,96367.66
2023-11-04T23:25:11.428Z,96369.22
2023-11-04T23:27:46.619Z,96372.34
2023-11-04T23:30:14.603Z,96359.66
2023-11-04T23:32:42.375Z,96349.81
2023-11-04T23:35:11.846Z,96353.06
2023-11-04T23:37:39.605Z,96355.13
2023-11-04T23:40:10.234Z,96340.09
2023-11-04T23:42:38.327Z,96338.56
2023-11-04T23:45:06.815Z,96342.94
2023-11-04T23:47:34.831Z,96330.38
2023-11-04T23:50:02.948Z,96332.22
2023-11-04T23:52:32.027Z,96326.72
2023-11-04T23:55:00.181Z,96320.00
2023-11-04T23:57:27.842Z,96318.34
2023-11-04T23:59:55.499Z,96323.53
